地図

経路データ

SID SEASON NUMBER BASIN SUBBASIN NAME ISO_TIME NATURE LAT LON WMO_WIND WMO_PRES WMO_AGENCY TRACK_TYPE DIST2LAND LANDFALL IFLAG USA_AGENCY USA_ATCF_ID USA_LAT USA_LON USA_RECORD USA_STATUS USA_WIND USA_PRES USA_SSHS USA_R34_NE USA_R34_SE USA_R34_SW USA_R34_NW USA_R50_NE USA_R50_SE USA_R50_SW USA_R50_NW USA_R64_NE USA_R64_SE USA_R64_SW USA_R64_NW USA_POCI USA_ROCI USA_RMW USA_EYE TOKYO_LAT TOKYO_LON TOKYO_GRADE TOKYO_WIND TOKYO_PRES TOKYO_R50_DIR TOKYO_R50_LONG TOKYO_R50_SHORT TOKYO_R30_DIR TOKYO_R30_LONG TOKYO_R30_SHORT TOKYO_LAND CMA_LAT CMA_LON CMA_CAT CMA_WIND CMA_PRES HKO_LAT HKO_LON HKO_CAT HKO_WIND HKO_PRES NEWDELHI_LAT NEWDELHI_LON NEWDELHI_GRADE NEWDELHI_WIND NEWDELHI_PRES NEWDELHI_CI NEWDELHI_DP NEWDELHI_POCI REUNION_LAT REUNION_LON REUNION_TYPE REUNION_WIND REUNION_PRES REUNION_TNUM REUNION_CI REUNION_RMW REUNION_R34_NE REUNION_R34_SE REUNION_R34_SW REUNION_R34_NW REUNION_R50_NE REUNION_R50_SE REUNION_R50_SW REUNION_R50_NW REUNION_R64_NE REUNION_R64_SE REUNION_R64_SW REUNION_R64_NW BOM_LAT BOM_LON BOM_TYPE BOM_WIND BOM_PRES BOM_TNUM BOM_CI BOM_RMW BOM_R34_NE BOM_R34_SE BOM_R34_SW BOM_R34_NW BOM_R50_NE BOM_R50_SE BOM_R50_SW BOM_R50_NW BOM_R64_NE BOM_R64_SE BOM_R64_SW BOM_R64_NW BOM_ROCI BOM_POCI BOM_EYE BOM_POS_METHOD BOM_PRES_METHOD NADI_LAT NADI_LON NADI_CAT NADI_WIND NADI_PRES WELLINGTON_LAT WELLINGTON_LON WELLINGTON_WIND WELLINGTON_PRES DS824_LAT DS824_LON DS824_STAGE DS824_WIND DS824_PRES TD9636_LAT TD9636_LON TD9636_STAGE TD9636_WIND TD9636_PRES TD9635_LAT TD9635_LON TD9635_WIND TD9635_PRES TD9635_ROCI NEUMANN_LAT NEUMANN_LON NEUMANN_CLASS NEUMANN_WIND NEUMANN_PRES MLC_LAT MLC_LON MLC_CLASS MLC_WIND MLC_PRES USA_GUST BOM_GUST BOM_GUST_PER REUNION_GUST REUNION_GUST_PER USA_SEAHGT USA_SEARAD_NE USA_SEARAD_SE USA_SEARAD_SW USA_SEARAD_NW STORM_SPEED STORM_DIR
1970220N14342 1970 84 NA NA NOT_NAMED 1970-08-07 12:00:00 TS 14.0000 -18.5000 25 hurdat_atl main 133 133 O_____________ hurdat_atl AL081970 14.0000 -18.5000 TD 25 -1 10 270
1970220N14342 1970 84 NA NA NOT_NAMED 1970-08-07 15:00:00 TS 14.0002 -19.0000 main 179 179 P_____________ AL081970 14.0002 -19.0000 TD 25 -1 10 270
1970220N14342 1970 84 NA NA NOT_NAMED 1970-08-07 18:00:00 TS 14.0000 -19.5000 25 hurdat_atl main 229 229 O_____________ hurdat_atl AL081970 14.0000 -19.5000 TD 25 -1 10 270
1970220N14342 1970 84 NA NA NOT_NAMED 1970-08-07 21:00:00 TS 13.9999 -20.0000 main 280 280 P_____________ AL081970 13.9999 -20.0000 TD 25 -1 10 270
1970220N14342 1970 84 NA NA NOT_NAMED 1970-08-08 00:00:00 TS 14.0000 -20.5000 25 hurdat_atl main 332 332 O_____________ hurdat_atl AL081970 14.0000 -20.5000 TD 25 -1 10 270
1970220N14342 1970 84 NA NA NOT_NAMED 1970-08-08 03:00:00 TS 13.9999 -21.0000 main 385 385 P_____________ AL081970 13.9999 -21.0000 TD 27 -1 10 270
1970220N14342 1970 84 NA NA NOT_NAMED 1970-08-08 06:00:00 TS 14.0000 -21.5000 30 hurdat_atl main 438 438 O_____________ hurdat_atl AL081970 14.0000 -21.5000 TD 30 -1 10 270
1970220N14342 1970 84 NA NA NOT_NAMED 1970-08-08 09:00:00 TS 13.9998 -21.9850 main 491 491 P_____________ AL081970 13.9998 -21.9850 TD 30 -1 10 270
1970220N14342 1970 84 NA NA NOT_NAMED 1970-08-08 12:00:00 TS 14.0000 -22.5000 30 1006 hurdat_atl main 544 544 O_____________ hurdat_atl AL081970 14.0000 -22.5000 TD 30 1006 -1 11 270
1970220N14342 1970 84 NA NA NOT_NAMED 1970-08-08 15:00:00 TS 13.9999 -23.0775 main 608 608 P_____________ AL081970 13.9999 -23.0775 TD 30 -1 12 270
1970220N14342 1970 84 NA NA NOT_NAMED 1970-08-08 18:00:00 TS 14.0000 -23.7000 30 hurdat_atl main 672 672 O_____________ hurdat_atl AL081970 14.0000 -23.7000 TD 30 -1 12 270
1970220N14342 1970 84 NA NA NOT_NAMED 1970-08-08 21:00:00 TS 13.9998 -24.3275 main 737 737 P_____________ AL081970 13.9998 -24.3275 TD 30 -1 13 270
1970220N14342 1970 84 NA NA NOT_NAMED 1970-08-09 00:00:00 TS 14.0000 -25.0000 30 hurdat_atl main 812 812 O_____________ hurdat_atl AL081970 14.0000 -25.0000 TD 30 -1 14 270
1970220N14342 1970 84 NA NA NOT_NAMED 1970-08-09 03:00:00 TS 13.9998 -25.7275 main 887 887 P_____________ AL081970 13.9998 -25.7275 TD 30 -1 15 270
1970220N14342 1970 84 NA NA NOT_NAMED 1970-08-09 06:00:00 TS 14.0000 -26.5000 30 hurdat_atl main 973 973 O_____________ hurdat_atl AL081970 14.0000 -26.5000 TD 30 -1 15 270
1970220N14342 1970 84 NA NA NOT_NAMED 1970-08-09 09:00:00 TS 14.0071 -27.2699 main 1059 1059 P_____________ AL081970 14.0071 -27.2699 TD 30 -1 16 270
1970220N14342 1970 84 NA NA NOT_NAMED 1970-08-09 12:00:00 TS 14.0000 -28.1000 30 hurdat_atl main 1145 1145 O_____________ hurdat_atl AL081970 14.0000 -28.1000 TD 30 -1 17 268
1970220N14342 1970 84 NA NA NOT_NAMED 1970-08-09 15:00:00 TS 13.9573 -29.0201 main 1241 1241 P_____________ AL081970 13.9573 -29.0201 TD 30 -1 18 267
1970220N14342 1970 84 NA NA NOT_NAMED 1970-08-09 18:00:00 TS 13.9000 -30.0000 30 hurdat_atl main 1350 1350 O_____________ hurdat_atl AL081970 13.9000 -30.0000 TD 30 -1 19 267
1970220N14342 1970 84 NA NA NOT_NAMED 1970-08-09 21:00:00 TS 13.8498 -31.0000 main 1458 1458 P_____________ AL081970 13.8498 -31.0000 TD 30 -1 19 267
1970220N14342 1970 84 NA NA NOT_NAMED 1970-08-10 00:00:00 TS 13.8000 -32.0000 30 hurdat_atl main 1566 1566 O_____________ hurdat_atl AL081970 13.8000 -32.0000 TD 30 -1 19 267
1970220N14342 1970 84 NA NA NOT_NAMED 1970-08-10 03:00:00 TS 13.7571 -32.9649 main 1674 1674 P_____________ AL081970 13.7571 -32.9649 TD 30 -1 19 267
1970220N14342 1970 84 NA NA NOT_NAMED 1970-08-10 06:00:00 TS 13.7000 -33.9000 30 hurdat_atl main 1771 1771 O_____________ hurdat_atl AL081970 13.7000 -33.9000 TD 30 -1 18 265
1970220N14342 1970 84 NA NA NOT_NAMED 1970-08-10 09:00:00 TS 13.6071 -34.8075 main 1869 1869 P_____________ AL081970 13.6071 -34.8075 TD 30 -1 18 263
1970220N14342 1970 84 NA NA NOT_NAMED 1970-08-10 12:00:00 TS 13.5000 -35.7000 30 hurdat_atl main 1892 1862 O_____________ hurdat_atl AL081970 13.5000 -35.7000 TD 30 -1 17 263
1970220N14342 1970 84 NA NA NOT_NAMED 1970-08-10 15:00:00 TS 13.3920 -36.5850 main 1860 1829 P_____________ AL081970 13.3920 -36.5850 TD 32 -1 18 263
1970220N14342 1970 84 NA NA NOT_NAMED 1970-08-10 18:00:00 TS 13.3000 -37.5000 35 hurdat_atl main 1820 1732 O_____________ hurdat_atl AL081970 13.3000 -37.5000 TS 35 0 19 265
1970220N14342 1970 84 NA NA NOT_NAMED 1970-08-10 21:00:00 TS 13.2198 -38.4852 main 1723 1644 P_____________ AL081970 13.2198 -38.4852 TS 35 0 20 267
1970220N14342 1970 84 NA NA NOT_NAMED 1970-08-11 00:00:00 TS 13.2000 -39.5000 35 hurdat_atl main 1635 1565 O_____________ hurdat_atl AL081970 13.2000 -39.5000 TS 35 0 19 271
1970220N14342 1970 84 NA NA NOT_NAMED 1970-08-11 03:00:00 TS 13.2694 -40.4850 main 1556 1490 P_____________ AL081970 13.2694 -40.4850 TS 35 0 20 276
1970220N14342 1970 84 NA NA NOT_NAMED 1970-08-11 06:00:00 TS 13.4000 -41.5000 35 hurdat_atl main 1482 1412 O_____________ hurdat_atl AL081970 13.4000 -41.5000 TS 35 0 21 278
1970220N14342 1970 84 NA NA NOT_NAMED 1970-08-11 09:00:00 TS 13.5496 -42.5775 main 1405 1350 P_____________ AL081970 13.5496 -42.5775 TS 37 0 22 278
1970220N14342 1970 84 NA NA NOT_NAMED 1970-08-11 12:00:00 TS 13.7000 -43.7000 40 hurdat_atl main 1343 1281 O_____________ hurdat_atl AL081970 13.7000 -43.7000 TS 40 0 22 277
1970220N14342 1970 84 NA NA NOT_NAMED 1970-08-11 15:00:00 TS 13.8147 -44.8501 main 1275 1220 P_____________ AL081970 13.8147 -44.8501 TS 40 0 22 275
1970220N14342 1970 84 NA NA NOT_NAMED 1970-08-11 18:00:00 TS 13.9000 -46.0000 40 hurdat_atl main 1213 1161 O_____________ hurdat_atl AL081970 13.9000 -46.0000 TS 40 0 22 274
1970220N14342 1970 84 NA NA NOT_NAMED 1970-08-11 21:00:00 TS 13.9644 -47.1075 main 1155 1102 P_____________ AL081970 13.9644 -47.1075 TS 37 0 21 273
1970220N14342 1970 84 NA NA NOT_NAMED 1970-08-12 00:00:00 TS 14.0000 -48.2000 35 hurdat_atl main 1097 1051 O_____________ hurdat_atl AL081970 14.0000 -48.2000 TS 35 0 21 271
1970220N14342 1970 84 NA NA NOT_NAMED 1970-08-12 03:00:00 TS 14.0070 -49.3001 main 1047 1002 P_____________ AL081970 14.0070 -49.3001 TS 35 0 21 270
1970220N14342 1970 84 NA NA NOT_NAMED 1970-08-12 06:00:00 TS 14.0000 -50.4000 35 hurdat_atl main 998 957 O_____________ hurdat_atl AL081970 14.0000 -50.4000 TS 35 0 21 270
1970220N14342 1970 84 NA NA NOT_NAMED 1970-08-12 09:00:00 TS 13.9996 -51.5075 main 954 926 P_____________ AL081970 13.9996 -51.5075 TS 32 -1 21 270
1970220N14342 1970 84 NA NA NOT_NAMED 1970-08-12 12:00:00 TS 14.0000 -52.6000 30 1010 hurdat_atl main 924 885 O_____________ hurdat_atl AL081970 14.0000 -52.6000 TD 30 1010 -1 21 269
1970220N14342 1970 84 NA NA NOT_NAMED 1970-08-12 15:00:00 TS 13.9772 -53.6802 main 875 787 P_____________ AL081970 13.9772 -53.6802 TD 30 -1 20 270
1970220N14342 1970 84 NA NA NOT_NAMED 1970-08-12 18:00:00 TS 14.0000 -54.7000 30 hurdat_atl main 778 699 O_____________ hurdat_atl AL081970 14.0000 -54.7000 TD 30 -1 19 273
1970220N14342 1970 84 NA NA NOT_NAMED 1970-08-12 21:00:00 TS 14.0746 -55.6453 main 699 633 P_____________ AL081970 14.0746 -55.6453 TD 32 -1 18 280
1970220N14342 1970 84 NA NA NOT_NAMED 1970-08-13 00:00:00 TS 14.3000 -56.5000 35 hurdat_atl main 633 607 O_____________ hurdat_atl AL081970 14.3000 -56.5000 TS 35 0 17 292
1970220N14342 1970 84 NA NA NOT_NAMED 1970-08-13 03:00:00 TS 14.7171 -57.2727 main 601 597 P_____________ AL081970 14.7171 -57.2727 TS 40 0 18 305
1970220N14342 1970 84 NA NA NOT_NAMED 1970-08-13 06:00:00 TS 15.3000 -58.0000 45 hurdat_atl main 609 607 O_____________ hurdat_atl AL081970 15.3000 -58.0000 TS 45 0 19 312
1970220N14342 1970 84 NA NA NOT_NAMED 1970-08-13 09:00:00 TS 15.9620 -58.7281 main 643 639 P_____________ AL081970 15.9620 -58.7281 TS 47 0 20 314
1970220N14342 1970 84 NA NA NOT_NAMED 1970-08-13 12:00:00 TS 16.7000 -59.5000 50 hurdat_atl main 668 568 O_____________ hurdat_atl AL081970 16.7000 -59.5000 TS 50 0 22 314
1970220N14342 1970 84 NA NA NOT_NAMED 1970-08-13 15:00:00 TS 17.4572 -60.3629 main 555 464 P_____________ AL081970 17.4572 -60.3629 TS 52 0 23 311
1970220N14342 1970 84 NA NA NOT_NAMED 1970-08-13 18:00:00 TS 18.2000 -61.3000 55 hurdat_atl main 454 361 O_____________ hurdat_atl AL081970 18.2000 -61.3000 TS 55 0 23 308
1970220N14342 1970 84 NA NA NOT_NAMED 1970-08-13 21:00:00 TS 18.8872 -62.2854 main 352 276 P_____________ AL081970 18.8872 -62.2854 TS 55 0 23 304
1970220N14342 1970 84 NA NA NOT_NAMED 1970-08-14 00:00:00 TS 19.5000 -63.3000 55 1003 hurdat_atl main 271 230 O_____________ hurdat_atl AL081970 19.5000 -63.3000 TS 55 1003 0 22 301
1970220N14342 1970 84 NA NA NOT_NAMED 1970-08-14 03:00:00 TS 20.0217 -64.2862 main 225 221 P_____________ AL081970 20.0217 -64.2862 TS 50 0 21 298
1970220N14342 1970 84 NA NA NOT_NAMED 1970-08-14 06:00:00 TS 20.5000 -65.3000 45 hurdat_atl main 237 235 O_____________ hurdat_atl AL081970 20.5000 -65.3000 TS 45 0 22 297
1970220N14342 1970 84 NA NA NOT_NAMED 1970-08-14 09:00:00 TS 20.9991 -66.3634 main 290 290 P_____________ AL081970 20.9991 -66.3634 TS 42 0 23 296
1970220N14342 1970 84 NA NA NOT_NAMED 1970-08-14 12:00:00 TS 21.5000 -67.5000 40 hurdat_atl main 309 294 O_____________ hurdat_atl AL081970 21.5000 -67.5000 TS 40 0 24 294
1970220N14342 1970 84 NA NA NOT_NAMED 1970-08-14 15:00:00 TS 21.9775 -68.7510 main 295 291 P_____________ AL081970 21.9775 -68.7510 TS 40 0 25 293
1970220N14342 1970 84 NA NA NOT_NAMED 1970-08-14 18:00:00 NR 22.5000 -70.0000 40 hurdat_atl main 308 287 O_____________ hurdat_atl AL081970 22.5000 -70.0000 DB 40 -3 25 297
1970220N14342 1970 84 NA NA NOT_NAMED 1970-08-14 21:00:00 NR 23.0969 -71.1535 main 281 277 P_____________ AL081970 23.0969 -71.1535 DB 37 -3 24 303
1970220N14342 1970 84 NA NA NOT_NAMED 1970-08-15 00:00:00 NR 23.8000 -72.2000 35 hurdat_atl main 302 299 O_____________ hurdat_atl AL081970 23.8000 -72.2000 DB 35 -3 24 310
1970220N14342 1970 84 NA NA NOT_NAMED 1970-08-15 03:00:00 NR 24.6343 -73.1528 main 380 380 P_____________ AL081970 24.6343 -73.1528 DB 32 -3 24 316
1970220N14342 1970 84 NA NA NOT_NAMED 1970-08-15 06:00:00 NR 25.5000 -74.0000 30 hurdat_atl main 388 352 O_____________ hurdat_atl AL081970 25.5000 -74.0000 DB 30 -3 22 319
1970220N14342 1970 84 NA NA NOT_NAMED 1970-08-15 09:00:00 NR 26.3094 -74.7880 main 347 327 P_____________ AL081970 26.3094 -74.7880 DB 30 -3 20 318
1970220N14342 1970 84 NA NA NOT_NAMED 1970-08-15 12:00:00 TS 27.0000 -75.5000 30 1015 hurdat_atl main 327 319 O_____________ hurdat_atl AL081970 27.0000 -75.5000 TD 30 1015 -1 17 314
1970220N14342 1970 84 NA NA NOT_NAMED 1970-08-15 15:00:00 TS 27.5096 -76.1811 main 322 321 P_____________ AL081970 27.5096 -76.1811 TD 30 -1 15 308
1970220N14342 1970 84 NA NA NOT_NAMED 1970-08-15 18:00:00 TS 27.9000 -76.8000 30 hurdat_atl main 334 297 O_____________ hurdat_atl AL081970 27.9000 -76.8000 TD 30 -1 13 305
1970220N14342 1970 84 NA NA NOT_NAMED 1970-08-15 21:00:00 TS 28.2649 -77.4029 main 301 253 P_____________ AL081970 28.2649 -77.4029 TD 30 -1 12 306
1970220N14342 1970 84 NA NA NOT_NAMED 1970-08-16 00:00:00 TS 28.6000 -77.9000 30 hurdat_atl main 253 218 O_____________ hurdat_atl AL081970 28.6000 -77.9000 TD 30 -1 10 312
1970220N14342 1970 84 NA NA NOT_NAMED 1970-08-16 03:00:00 TS 28.9497 -78.2678 main 218 209 P_____________ AL081970 28.9497 -78.2678 TD 32 -1 9 323
1970220N14342 1970 84 NA NA NOT_NAMED 1970-08-16 06:00:00 TS 29.3000 -78.5000 35 hurdat_atl main 213 210 O_____________ hurdat_atl AL081970 29.3000 -78.5000 TS 35 0 8 334
1970220N14342 1970 84 NA NA NOT_NAMED 1970-08-16 09:00:00 TS 29.6274 -78.6452 main 221 213 P_____________ AL081970 29.6274 -78.6452 TS 35 0 7 346
1970220N14342 1970 84 NA NA NOT_NAMED 1970-08-16 12:00:00 TS 30.0000 -78.7000 35 1011 hurdat_atl main 235 235 O_____________ hurdat_atl AL081970 30.0000 -78.7000 TS 35 1011 0 8 355
1970220N14342 1970 84 NA NA NOT_NAMED 1970-08-16 15:00:00 TS 30.4625 -78.7299 main 258 216 P_____________ AL081970 30.4625 -78.7299 TS 35 0 10 1
1970220N14342 1970 84 NA NA NOT_NAMED 1970-08-16 18:00:00 TS 31.0000 -78.7000 35 hurdat_atl main 216 173 O_____________ hurdat_atl AL081970 31.0000 -78.7000 TS 35 0 11 4
1970220N14342 1970 84 NA NA NOT_NAMED 1970-08-16 21:00:00 TS 31.5774 -78.6518 main 165 122 P_____________ AL081970 31.5774 -78.6518 TS 37 0 12 8
1970220N14342 1970 84 NA NA NOT_NAMED 1970-08-17 00:00:00 TS 32.2000 -78.5000 40 hurdat_atl main 122 94 O_____________ hurdat_atl AL081970 32.2000 -78.5000 TS 40 0 13 16
1970220N14342 1970 84 NA NA NOT_NAMED 1970-08-17 03:00:00 TS 32.8308 -78.2367 main 103 48 P_____________ AL081970 32.8308 -78.2367 TS 42 0 14 24
1970220N14342 1970 84 NA NA NOT_NAMED 1970-08-17 06:00:00 TS 33.5000 -77.8000 45 hurdat_atl main 48 35 O_____________ hurdat_atl AL081970 33.5000 -77.8000 TS 45 0 18 33
1970220N14342 1970 84 NA NA NOT_NAMED 1970-08-17 09:00:00 TS 34.3145 -77.0794 main 35 0 P_____________ AL081970 34.3145 -77.0794 TS 47 0 18 37
1970220N14342 1970 84 NA NA NOT_NAMED 1970-08-17 11:00:00 TS 34.7000 -76.7000 50 1007 hurdat_atl main 0 0 O_____________ hurdat_atl AL081970 34.7000 -76.7000 L TS 50 1007 0 13 39
1970220N14342 1970 84 NA NA NOT_NAMED 1970-08-17 12:00:00 TS 34.8000 -76.6000 50 1007 hurdat_atl main 0 0 O_____________ hurdat_atl AL081970 34.8000 -76.6000 TS 50 1007 0 11 46
1970220N14342 1970 84 NA NA NOT_NAMED 1970-08-17 15:00:00 TS 35.2287 -76.0424 main 21 11 P_____________ AL081970 35.2287 -76.0424 TS 52 1004 0 14 48
1970220N14342 1970 84 NA NA NOT_NAMED 1970-08-17 17:00:00 TS 35.6000 -75.5000 55 hurdat_atl main 18 14 I_____________ hurdat_atl AL081970 35.6000 -75.5000 L TS 55 1002 0 18 50
1970220N14342 1970 84 NA NA NOT_NAMED 1970-08-17 18:00:00 TS 35.8000 -75.2000 55 1002 hurdat_atl main 26 26 O_____________ hurdat_atl AL081970 35.8000 -75.2000 TS 55 1002 0 23 51
1970220N14342 1970 84 NA NA NOT_NAMED 1970-08-17 21:00:00 TS 36.5764 -74.0012 main 157 157 P_____________ AL081970 36.5764 -74.0012 TS 57 0 28 52
1970220N14342 1970 84 NA NA NOT_NAMED 1970-08-18 00:00:00 TS 37.5000 -72.5000 60 hurdat_atl main 244 244 O_____________ hurdat_atl AL081970 37.5000 -72.5000 TS 60 0 29 52
1970220N14342 1970 84 NA NA NOT_NAMED 1970-08-18 03:00:00 TS 38.3705 -71.0629 main 296 275 P_____________ AL081970 38.3705 -71.0629 TS 62 0 31 54
1970220N14342 1970 84 NA NA NOT_NAMED 1970-08-18 06:00:00 TS 39.3000 -69.3000 65 hurdat_atl main 271 255 O_____________ hurdat_atl AL081970 39.3000 -69.3000 HU 65 1 37 58
1970220N14342 1970 84 NA NA NOT_NAMED 1970-08-18 09:00:00 TS 40.3434 -66.9984 main 295 253 P_____________ AL081970 40.3434 -66.9984 HU 67 1 43 62
1970220N14342 1970 84 NA NA NOT_NAMED 1970-08-18 12:00:00 TS 41.3000 -64.3000 70 hurdat_atl main 257 256 O_____________ hurdat_atl AL081970 41.3000 -64.3000 HU 70 1 45 70
1970220N14342 1970 84 NA NA NOT_NAMED 1970-08-18 15:00:00 TS 41.9038 -61.3477 main 333 333 P_____________ AL081970 41.9038 -61.3477 HU 70 1 45 74
1970220N14342 1970 84 NA NA NOT_NAMED 1970-08-18 18:00:00 TS 42.5000 -58.5000 70 hurdat_atl main 364 364 O_____________ hurdat_atl AL081970 42.5000 -58.5000 HU 70 1 42 68
1970220N14342 1970 84 NA NA NOT_NAMED 1970-08-18 21:00:00 TS 43.4750 -55.9747 main 367 247 P_____________ AL081970 43.4750 -55.9747 HU 67 1 38 59
1970220N14342 1970 84 NA NA NOT_NAMED 1970-08-19 00:00:00 ET 44.5000 -54.0000 65 hurdat_atl main 235 157 O_____________ hurdat_atl AL081970 44.5000 -54.0000 EX 65 -4 29 52
1970220N14342 1970 84 NA NA NOT_NAMED 1970-08-19 03:00:00 ET 45.2799 -52.7637 main 147 113 P_____________ AL081970 45.2799 -52.7637 EX 62 -4 21 43
1970220N14342 1970 84 NA NA NOT_NAMED 1970-08-19 06:00:00 ET 46.0000 -52.0000 60 hurdat_atl main 113 113 O_____________ hurdat_atl AL081970 46.0000 -52.0000 EX 60 -4 19 36
1970220N14342 1970 84 NA NA NOT_NAMED 1970-08-19 09:00:00 ET 46.8092 -51.1750 main 130 130 P_____________ AL081970 46.8092 -51.1750 EX 57 -4 18 34
1970220N14342 1970 84 NA NA NOT_NAMED 1970-08-19 12:00:00 ET 47.5000 -50.5000 55 hurdat_atl main 157 157 O_____________ hurdat_atl AL081970 47.5000 -50.5000 EX 55 -4 14 36
1970220N14342 1970 84 NA NA NOT_NAMED 1970-08-19 15:00:00 ET 47.9392 -49.9522 main 198 198 P_____________ AL081970 47.9392 -49.9522 EX 52 -4 10 44
1970220N14342 1970 84 NA NA NOT_NAMED 1970-08-19 18:00:00 ET 48.2000 -49.5000 50 hurdat_atl main 243 243 O_____________ hurdat_atl AL081970 48.2000 -49.5000 EX 50 -4 8 52
1970220N14342 1970 84 NA NA NOT_NAMED 1970-08-19 21:00:00 ET 48.4248 -49.0350 main 282 282 P_____________ AL081970 48.4248 -49.0350 EX 50 -4 7 63
1970220N14342 1970 84 NA NA NOT_NAMED 1970-08-20 00:00:00 ET 48.5000 -48.6000 50 hurdat_atl main 312 312 O_____________ hurdat_atl AL081970 48.5000 -48.6000 EX 50 -4 6 90
1970220N14342 1970 84 NA NA NOT_NAMED 1970-08-20 03:00:00 ET 48.4251 -48.1542 main 340 340 P_____________ AL081970 48.4251 -48.1542 EX 50 -4 6 120
1970220N14342 1970 84 NA NA NOT_NAMED 1970-08-20 06:00:00 ET 48.2000 -47.8000 50 hurdat_atl main 364 364 O_____________ hurdat_atl AL081970 48.2000 -47.8000 EX 50 -4 7 143
1970220N14342 1970 84 NA NA NOT_NAMED 1970-08-20 09:00:00 ET 47.8872 -47.5516 main 375 375 P_____________ AL081970 47.8872 -47.5516 EX 47 -4 7 164
1970220N14342 1970 84 NA NA NOT_NAMED 1970-08-20 12:00:00 ET 47.5000 -47.5000 45 hurdat_atl main 381 370 O_____________ hurdat_atl AL081970 47.5000 -47.5000 EX 45 -4 8 187
1970220N14342 1970 84 NA NA NOT_NAMED 1970-08-20 15:00:00 ET 47.1001 -47.6911 main 370 357 P_____________ AL081970 47.1001 -47.6911 EX 45 -4 9 203
1970220N14342 1970 84 NA NA NOT_NAMED 1970-08-20 18:00:00 ET 46.7000 -48.0000 45 hurdat_atl main 357 347 O_____________ hurdat_atl AL081970 46.7000 -48.0000 EX 45 -4 9 209
1970220N14342 1970 84 NA NA NOT_NAMED 1970-08-20 21:00:00 ET 46.3351 -48.3107 main 351 344 P_____________ AL081970 46.3351 -48.3107 EX 45 -4 8 206
1970220N14342 1970 84 NA NA NOT_NAMED 1970-08-21 00:00:00 ET 46.0000 -48.5000 45 hurdat_atl main 352 352 O_____________ hurdat_atl AL081970 46.0000 -48.5000 EX 45 -4 7 189
1970220N14342 1970 84 NA NA NOT_NAMED 1970-08-21 03:00:00 ET 45.6620 -48.4693 main 365 365 P_____________ AL081970 45.6620 -48.4693 EX 45 -4 6 161
1970220N14342 1970 84 NA NA NOT_NAMED 1970-08-21 06:00:00 ET 45.4000 -48.2000 45 hurdat_atl main 399 399 O_____________ hurdat_atl AL081970 45.4000 -48.2000 EX 45 -4 7 129
1970220N14342 1970 84 NA NA NOT_NAMED 1970-08-21 09:00:00 ET 45.2403 -47.7169 main 444 444 P_____________ AL081970 45.2403 -47.7169 EX 45 -4 8 104
1970220N14342 1970 84 NA NA NOT_NAMED 1970-08-21 12:00:00 ET 45.2000 -47.1000 45 hurdat_atl main 487 487 O_____________ hurdat_atl AL081970 45.2000 -47.1000 EX 45 -4 8 90
1970220N14342 1970 84 NA NA NOT_NAMED 1970-08-21 15:00:00 ET 45.2396 -46.5220 main 530 525 P_____________ AL081970 45.2396 -46.5220 EX 45 -4 9 77
1970220N14342 1970 84 NA NA NOT_NAMED 1970-08-21 18:00:00 ET 45.4000 -45.9000 45 hurdat_atl main 561 561 O_____________ hurdat_atl AL081970 45.4000 -45.9000 EX 45 -4 10 65
1970220N14342 1970 84 NA NA NOT_NAMED 1970-08-21 21:00:00 ET 45.6622 -45.2225 main 597 597 P_____________ AL081970 45.6622 -45.2225 EX 45 -4 11 58
1970220N14342 1970 84 NA NA NOT_NAMED 1970-08-22 00:00:00 ET 46.0000 -44.5000 45 hurdat_atl main 636 636 O_____________ hurdat_atl AL081970 46.0000 -44.5000 EX 45 -4 12 56
1970220N14342 1970 84 NA NA NOT_NAMED 1970-08-22 03:00:00 ET 46.3179 -43.8290 main 678 678 P_____________ AL081970 46.3179 -43.8290 EX 45 -4 12 56
1970220N14342 1970 84 NA NA NOT_NAMED 1970-08-22 06:00:00 ET 46.7000 -43.0000 45 hurdat_atl main 728 728 O_____________ hurdat_atl AL081970 46.7000 -43.0000 EX 45 -4 16 58
1970220N14342 1970 84 NA NA NOT_NAMED 1970-08-22 09:00:00 ET 47.1858 -41.8263 main 810 810 P_____________ AL081970 47.1858 -41.8263 EX 45 -4 20 60
1970220N14342 1970 84 NA NA NOT_NAMED 1970-08-22 12:00:00 ET 47.7000 -40.5000 45 hurdat_atl main 902 902 O_____________ hurdat_atl AL081970 47.7000 -40.5000 EX 45 -4 20 60
1970220N14342 1970 84 NA NA NOT_NAMED 1970-08-22 15:00:00 ET 48.1781 -39.2636 main 989 989 P_____________ AL081970 48.1781 -39.2636 EX 45 -4 19 62
1970220N14342 1970 84 NA NA NOT_NAMED 1970-08-22 18:00:00 ET 48.6000 -38.0000 45 hurdat_atl main 1085 1085 O_____________ hurdat_atl AL081970 48.6000 -38.0000 EX 45 -4 19 65
1970220N14342 1970 84 NA NA NOT_NAMED 1970-08-22 21:00:00 ET 48.9661 -36.6731 main 1181 1181 P_____________ AL081970 48.9661 -36.6731 EX 42 -4 19 71
1970220N14342 1970 84 NA NA NOT_NAMED 1970-08-23 00:00:00 ET 49.2000 -35.3000 40 hurdat_atl main 1282 1282 O_____________ hurdat_atl AL081970 49.2000 -35.3000 EX 40 -4 18 80
1970220N14342 1970 84 NA NA NOT_NAMED 1970-08-23 03:00:00 ET 49.2967 -33.8854 main 1330 1330 P_____________ AL081970 49.2967 -33.8854 EX 40 -4 18 90
1970220N14342 1970 84 NA NA NOT_NAMED 1970-08-23 06:00:00 ET 49.2000 -32.5000 40 hurdat_atl main 1381 1381 O_____________ hurdat_atl AL081970 49.2000 -32.5000 EX 40 -4 18 102
1970220N14342 1970 84 NA NA NOT_NAMED 1970-08-23 09:00:00 ET 48.9239 -31.1886 main 1452 1432 P_____________ AL081970 48.9239 -31.1886 EX 37 -4 18 113
1970220N14342 1970 84 NA NA NOT_NAMED 1970-08-23 12:00:00 ET 48.5000 -30.0000 35 hurdat_atl main 1430 1381 O_____________ hurdat_atl AL081970 48.5000 -30.0000 EX 35 -4 17 121
1970220N14342 1970 84 NA NA NOT_NAMED 1970-08-23 15:00:00 ET 48.0213 -28.9332 main 1379 1344 P_____________ AL081970 48.0213 -28.9332 EX 32 -4 17 127
1970220N14342 1970 84 NA NA NOT_NAMED 1970-08-23 18:00:00 ET 47.5000 -28.0000 30 hurdat_atl main 1344 1318 O_____________ hurdat_atl AL081970 47.5000 -28.0000 EX 30 -4 16 131
1970220N14342 1970 84 NA NA NOT_NAMED 1970-08-23 21:00:00 ET 46.9618 -27.1479 main 1311 1295 P_____________ AL081970 46.9618 -27.1479 EX 30 -4 15 132
1970220N14342 1970 84 NA NA NOT_NAMED 1970-08-24 00:00:00 ET 46.5000 -26.4000 30 1007 hurdat_atl main 1295 1275 O_____________ hurdat_atl AL081970 46.5000 -26.4000 EX 30 1007 -4 12 128
1970220N14342 1970 84 NA NA NOT_NAMED 1970-08-24 03:00:00 ET 46.1970 -25.7143 main 1269 1245 P_____________ AL081970 46.1970 -25.7143 EX 30 -4 10 119
1970220N14342 1970 84 NA NA NOT_NAMED 1970-08-24 06:00:00 ET 46.0000 -25.1000 30 hurdat_atl main 1245 1220 O_____________ hurdat_atl AL081970 46.0000 -25.1000 EX 30 -4 9 114
1970220N14342 1970 84 NA NA NOT_NAMED 1970-08-24 09:00:00 ET 45.8271 -24.5282 main 1221 1198 P_____________ AL081970 45.8271 -24.5282 EX 27 -4 8 111
1970220N14342 1970 84 NA NA NOT_NAMED 1970-08-24 12:00:00 ET 45.7000 -24.0000 25 hurdat_atl main 1198 1160 O_____________ hurdat_atl AL081970 45.7000 -24.0000 EX 25 -4 8 108
1970220N14342 1970 84 NA NA NOT_NAMED 1970-08-24 15:00:00 ET 45.5955 -23.4945 main 1160 1120 P_____________ AL081970 45.5955 -23.4945 EX 25 -4 7 106
1970220N14342 1970 84 NA NA NOT_NAMED 1970-08-24 18:00:00 ET 45.5000 -23.0000 25 hurdat_atl main 1120 O_____________ hurdat_atl AL081970 45.5000 -23.0000 EX 25 -4 7 105

IBTrACS Databaseについて

本データベースは、米国NOAAが公開する1842年以降の世界の熱帯低気圧のベストトラックデータアーカイブInternational Best Track Archive for Climate Stewardship (IBTrACS)を、ウェブで閲覧しやすい形式に変換したものです。

最終更新日:2022-11-16